TimeEDT,TemperatureF,Dew PointF,Humidity,Sea Level PressureIn,VisibilityMPH,Wind Direction,Wind SpeedMPH,Gust SpeedMPH,PrecipitationIn,Events,Conditions,WindDirDegrees,DateUTC
12:53 AM,46.9,42.1,83,30.05,10.0,SSW,13.8,19.6,N/A,,Clear,210,2013-04-08 04:53:00
1:53 AM,46.9,43.0,86,30.03,9.0,SW,12.7,19.6,N/A,,Clear,220,2013-04-08 05:53:00
2:53 AM,46.9,43.0,86,30.01,9.0,SW,15.0,-,N/A,,Partly Cloudy,220,2013-04-08 06:53:00
3:14 AM,48.2,44.6,87,30.00,9.0,SW,13.8,20.7,N/A,,Mostly Cloudy,220,2013-04-08 07:14:00
3:53 AM,48.0,44.1,86,29.99,9.0,SW,15.0,19.6,N/A,,Mostly Cloudy,220,2013-04-08 07:53:00
4:53 AM,46.9,44.1,90,29.98,8.0,SW,8.1,-,N/A,,Clear,230,2013-04-08 08:53:00
5:53 AM,46.9,44.1,90,29.99,8.0,SW,6.9,-,N/A,,Mostly Cloudy,220,2013-04-08 09:53:00
6:53 AM,46.9,44.1,90,30.00,7.0,SW,4.6,-,N/A,,Overcast,220,2013-04-08 10:53:00
7:53 AM,48.0,44.1,86,30.02,7.0,WSW,5.8,-,N/A,,Clear,240,2013-04-08 11:53:00
8:53 AM,52.0,44.1,74,30.03,10.0,WNW,5.8,-,N/A,,Clear,300,2013-04-08 12:53:00
9:53 AM,57.0,41.0,55,30.03,10.0,NNW,8.1,-,N/A,,Clear,340,2013-04-08 13:53:00
10:53 AM,59.0,41.0,51,30.04,10.0,NW,6.9,-,N/A,,Clear,310,2013-04-08 14:53:00
11:53 AM,61.0,39.9,46,30.04,10.0,West,10.4,16.1,N/A,,Clear,270,2013-04-08 15:53:00
12:53 PM,64.0,39.9,41,30.03,10.0,West,8.1,-,N/A,,Clear,280,2013-04-08 16:53:00
1:53 PM,66.0,39.0,37,30.03,10.0,West,10.4,-,N/A,,Clear,280,2013-04-08 17:53:00
2:53 PM,68.0,37.9,33,30.02,10.0,West,9.2,-,N/A,,Clear,280,2013-04-08 18:53:00
3:53 PM,62.1,42.1,48,30.02,10.0,South,9.2,-,N/A,,Clear,170,2013-04-08 19:53:00
4:53 PM,60.1,39.9,47,30.04,10.0,South,11.5,-,N/A,,Clear,170,2013-04-08 20:53:00
5:53 PM,54.0,41.0,62,30.05,10.0,SE,11.5,-,N/A,,Clear,130,2013-04-08 21:53:00
6:53 PM,52.0,39.9,63,30.07,10.0,SE,9.2,-,N/A,,Clear,130,2013-04-08 22:53:00
7:53 PM,50.0,41.0,71,30.09,10.0,ESE,8.1,-,N/A,,Clear,120,2013-04-08 23:53:00
8:53 PM,48.0,37.9,68,30.11,10.0,SE,10.4,-,N/A,,Clear,130,2013-04-09 00:53:00
9:53 PM,46.9,37.9,71,30.12,10.0,SE,8.1,-,N/A,,Clear,140,2013-04-09 01:53:00
10:53 PM,46.9,39.0,74,30.11,10.0,SE,6.9,-,N/A,,Clear,140,2013-04-09 02:53:00
11:53 PM,46.9,37.9,71,30.11,10.0,SSE,6.9,-,N/A,,Clear,160,2013-04-09 03:53:00